weather.gov     
National Weather Service

Terminal Aerodrome Forecast
NWS Homepage
This page is being discontinued on March 12, 2014.
The same data is available at this site. Please update your bookmarks.
Thank you, and we apologize for the inconvenience.
Please send an email to SR-SRH.Webmaster@noaa.gov with any concerns.


Current Version
Previous Version:    01  02  03  04  05  06  07  08  09  10  11  12  13  14  15  16  17  18  19  20  21  22  23  24  25  26  27  28  29  30  
   31  32  33  34  35  36  37  38  39  40  41  42  43  
[Printable]
310
FTUS41 KLWX 240500
TAFBWI
TAF
KBWI 240535Z 2406/2512 07005KT 2SM RA OVC015 WS020/16050KT
     FM240800 15012KT 2SM RA BR OVC008 WS020/18040KT
     FM240900 17016KT 2SM -RA BR OVC008 WS020/20040KT
     FM241100 18013KT 1SM BR OVC008
     FM241500 19013KT P6SM OVC030
     FM241600 20014KT P6SM BKN050
     FM241800 21016G26KT P6SM BKN050
     FM250100 20011KT P6SM BKN250
     FM250500 24010KT P6SM SCT150
     FM250800 29006KT P6SM SCT150=


U.S. Dept. of Commerce
NOAA National Weather Service
1325 East West Highway
Silver Spring, MD 20910
E-mail: w-nws.webmaster@noaa.gov
Page last modified: May 16, 2007
NATIONAL WEATHER SERVICE: for Safety, for Work, for Fun - FOR LIFE